<?xml version='1.0' encoding='UTF-8'?>
<gpx xmlns="http://www.topografix.com/GPX/1/1" creator="www.balnam.be" version="1.1" xmlns:xsi="http://www.w3.org/2001/XMLSchema-instance" xsi:schemaLocation="http://www.topografix.com/GPX/1/1 http://www.topografix.com/GPX/1/1/gpx.xsd">
<trk>
<name>hmtmt88</name>
<cmt>q</cmt>
<desc>Montigny-le-Tilleul Sentier n°88 sentier du moulin de Montigny-le-Tilleul par la Flanolle au bois de Terlon</desc>
<link href="https://chemins.be/montignyletilleul/sentier/88"/><trkseg>
<trkpt lat="50.363374" lon="4.377656"><time>2026-05-02T22:52:15Z</time></trkpt>
<trkpt lat="50.364219" lon="4.379160"><time>2026-05-02T23:02:15Z</time></trkpt>
<trkpt lat="50.365612" lon="4.380299"><time>2026-05-02T23:12:15Z</time></trkpt>
</trkseg></trk>
<trk>
<name>hmtmt88</name>
<cmt>v</cmt>
<desc>Montigny-le-Tilleul Sentier n°88 sentier du moulin de Montigny-le-Tilleul par la Flanolle au bois de Terlon</desc>
<link href="https://chemins.be/montignyletilleul/sentier/88"/><trkseg>
<trkpt lat="50.365612" lon="4.380299"><time>2026-05-02T23:12:15Z</time></trkpt>
<trkpt lat="50.366188" lon="4.381676"><time>2026-05-02T23:22:15Z</time></trkpt>
<trkpt lat="50.366466" lon="4.381465"><time>2026-05-02T23:32:15Z</time></trkpt>
<trkpt lat="50.366799" lon="4.381803"><time>2026-05-02T23:42:15Z</time></trkpt>
<trkpt lat="50.366961" lon="4.381775"><time>2026-05-02T23:52:15Z</time></trkpt>
<trkpt lat="50.367698" lon="4.382689"><time>2026-05-03T00:02:15Z</time></trkpt>
<trkpt lat="50.368148" lon="4.382295"><time>2026-05-03T00:12:15Z</time></trkpt>
<trkpt lat="50.368408" lon="4.383701"><time>2026-05-03T00:22:15Z</time></trkpt>
<trkpt lat="50.368489" lon="4.383617"><time>2026-05-03T00:32:15Z</time></trkpt>
<trkpt lat="50.369127" lon="4.385346"><time>2026-05-03T00:42:15Z</time></trkpt>
<trkpt lat="50.369415" lon="4.385276"><time>2026-05-03T00:52:15Z</time></trkpt>
<trkpt lat="50.369702" lon="4.385374"><time>2026-05-03T01:02:15Z</time></trkpt>
<trkpt lat="50.369936" lon="4.385838"><time>2026-05-03T01:12:15Z</time></trkpt>
</trkseg></trk>
<trk>
<name>hmtmt88</name>
<cmt>q</cmt>
<desc>Montigny-le-Tilleul Sentier n°88 sentier du moulin de Montigny-le-Tilleul par la Flanolle au bois de Terlon</desc>
<link href="https://chemins.be/montignyletilleul/sentier/88"/><trkseg>
<trkpt lat="50.369936" lon="4.385838"><time>2026-05-03T01:12:15Z</time></trkpt>
<trkpt lat="50.369864" lon="4.386147"><time>2026-05-03T01:22:15Z</time></trkpt>
<trkpt lat="50.370053" lon="4.386991"><time>2026-05-03T01:32:15Z</time></trkpt>
<trkpt lat="50.370556" lon="4.387525"><time>2026-05-03T01:42:15Z</time></trkpt>
<trkpt lat="50.370727" lon="4.388256"><time>2026-05-03T01:52:15Z</time></trkpt>
<trkpt lat="50.372156" lon="4.388721"><time>2026-05-03T02:02:15Z</time></trkpt>
<trkpt lat="50.372498" lon="4.388763"><time>2026-05-03T02:12:15Z</time></trkpt>
</trkseg></trk>
<trk>
<name>hmtmt88</name>
<cmt>s</cmt>
<desc>Montigny-le-Tilleul Sentier n°88 sentier du moulin de Montigny-le-Tilleul par la Flanolle au bois de Terlon</desc>
<link href="https://chemins.be/montignyletilleul/sentier/88"/><trkseg>
<trkpt lat="50.372498" lon="4.388763"><time>2026-05-03T02:12:15Z</time></trkpt>
<trkpt lat="50.373190" lon="4.389424"><time>2026-05-03T02:22:15Z</time></trkpt>
<trkpt lat="50.373999" lon="4.389593"><time>2026-05-03T02:32:15Z</time></trkpt>
</trkseg>
</trk>
</gpx>